Time;durP1;ratioP1;P1;durP2;ratioP2;P2;SDS_P1;SDS_P2;PMS_P1;PMS_P2;Temp;Humidity;BMP_temperature;BMP_pressure;BME280_temperature;BME280_humidity;BME280_pressure;Samples;Min_cycle;Max_cycle;Signal;HPM_P1;HPM_P2
2021/03/19 00:04:21;;;;;;;0.80;0.80;;;;;;;0.58;77.14;96860.56;299395;220;63004;-56
2021/03/19 00:09:22;;;;;;;0.80;0.80;;;;;;;0.62;76.95;96859.88;299395;214;63009;-56
2021/03/19 00:14:23;;;;;;;0.80;0.80;;;;;;;0.42;78.35;96859.34;299395;215;63005;-56
2021/03/19 00:19:24;;;;;;;0.80;0.80;;;;;;;0.25;79.58;96853.87;299396;252;63009;-57
2021/03/19 00:24:25;;;;;;;0.80;0.80;;;;;;;0.22;79.86;96848.19;299396;258;63005;-56
2021/03/19 00:29:26;;;;;;;0.80;0.80;;;;;;;0.23;80.59;96849.81;299396;236;63009;-57
2021/03/19 00:34:26;;;;;;;0.70;0.70;;;;;;;0.05;81.88;96841.88;299396;253;63004;-56
2021/03/19 00:39:28;;;;;;;0.80;0.80;;;;;;;0.03;82.17;96838.59;299396;197;63009;-57
2021/03/19 00:44:32;;;;;;;0.80;0.80;;;;;;;0.05;82.05;96836.53;299396;241;63005;-57
2021/03/19 00:49:34;;;;;;;0.80;0.80;;;;;;;0.01;82.63;96836.16;299418;224;63008;-56
2021/03/19 00:54:35;;;;;;;0.80;0.80;;;;;;;-0.09;82.87;96836.72;299396;206;63004;-57
2021/03/19 00:59:36;;;;;;;1.05;1.05;;;;;;;-0.11;83.03;96830.81;299396;199;63009;-57
2021/03/19 01:04:37;;;;;;;0.80;0.80;;;;;;;-0.10;82.85;96824.44;299397;209;63004;-57
2021/03/19 01:09:37;;;;;;;0.90;0.90;;;;;;;-0.02;82.58;96826.78;299397;231;63009;-57
2021/03/19 01:14:39;;;;;;;0.80;0.80;;;;;;;-0.02;81.86;96828.66;299396;214;63000;-57
2021/03/19 01:19:40;;;;;;;0.80;0.80;;;;;;;-0.03;82.21;96827.03;299396;251;63008;-57
2021/03/19 01:24:41;;;;;;;0.80;0.80;;;;;;;-0.13;82.49;96814.22;299396;226;63004;-57
2021/03/19 01:29:42;;;;;;;0.80;0.80;;;;;;;-0.08;82.52;96809.03;299396;221;63009;-57
2021/03/19 01:34:43;;;;;;;0.80;0.80;;;;;;;-0.11;82.29;96806.81;299395;282;64008;-56
2021/03/19 01:39:44;;;;;;;2.45;2.35;;;;;;;-0.14;82.57;96807.25;299396;240;63009;-56
2021/03/19 01:45:21;;;;;;;0.80;0.80;;;;;;;-0.18;82.98;96813.28;299396;248;63005;-57
2021/03/19 01:50:59;;;;;;;0.80;0.80;;;;;;;-0.15;82.91;96805.63;299395;243;64005;-56
2021/03/19 01:56:36;;;;;;;0.80;0.80;;;;;;;-0.17;83.42;96802.38;299397;224;63004;-57
2021/03/19 02:02:13;;;;;;;0.80;0.80;;;;;;;-0.05;82.30;96789.91;299397;196;63004;-57
2021/03/19 02:07:51;;;;;;;0.80;0.80;;;;;;;-0.10;82.73;96781.75;299395;223;63005;-57
2021/03/19 02:13:28;;;;;;;0.90;0.90;;;;;;;-0.19;82.93;96769.78;299395;210;63005;-56
2021/03/19 02:19:05;;;;;;;0.90;0.90;;;;;;;-0.19;82.89;96772.47;299395;210;63004;-57
2021/03/19 02:24:46;;;;;;;0.80;0.80;;;;;;;-0.17;82.54;96767.72;299395;243;63004;-57
2021/03/19 02:30:23;;;;;;;0.80;0.80;;;;;;;-0.21;82.31;96771.88;299395;216;63005;-57
2021/03/19 02:35:25;;;;;;;0.80;0.80;;;;;;;-0.23;82.45;96776.63;299395;259;63005;-56
2021/03/19 02:40:26;;;;;;;0.80;0.80;;;;;;;-0.20;82.21;96784.16;299395;196;63017;-57
2021/03/19 02:45:27;;;;;;;0.82;0.82;;;;;;;-0.20;82.58;96776.16;299395;222;63005;-57
2021/03/19 02:50:31;;;;;;;0.80;0.80;;;;;;;-0.19;82.35;96775.13;299395;218;63009;-56
2021/03/19 02:55:32;;;;;;;0.80;0.80;;;;;;;-0.17;82.24;96775.72;299417;213;63004;-57
2021/03/19 03:00:34;;;;;;;0.80;0.80;;;;;;;-0.17;82.16;96767.72;299395;199;63009;-56
2021/03/19 03:05:35;;;;;;;0.80;0.80;;;;;;;-0.07;81.79;96764.50;299395;251;63005;-57
2021/03/19 03:10:38;;;;;;;0.80;0.80;;;;;;;-0.08;81.65;96757.53;299395;242;63009;-56
2021/03/19 03:15:40;;;;;;;0.80;0.80;;;;;;;-0.23;82.13;96760.63;299395;264;63005;-57
2021/03/19 03:20:46;;;;;;;0.90;0.90;;;;;;;-0.16;81.73;96761.34;299395;198;63009;-57
2021/03/19 03:25:48;;;;;;;0.80;0.80;;;;;;;-0.15;81.70;96768.28;299395;204;63004;-57
2021/03/19 03:30:58;;;;;;;0.80;0.80;;;;;;;-0.24;82.25;96764.31;299395;207;63009;-57
2021/03/19 03:35:59;;;;;;;0.80;0.80;;;;;;;-0.21;82.67;96766.53;299395;211;63000;-57
2021/03/19 03:41:10;;;;;;;0.90;0.90;;;;;;;-0.26;82.70;96765.59;299395;266;63008;-57
2021/03/19 03:46:15;;;;;;;0.90;0.90;;;;;;;-0.21;83.35;96763.88;299395;209;63004;-57
2021/03/19 03:51:17;;;;;;;0.80;0.80;;;;;;;-0.17;83.29;96770.37;299395;207;63009;-57
2021/03/19 03:56:19;;;;;;;1.02;1.02;;;;;;;-0.14;83.09;96763.78;299395;275;63004;-56
2021/03/19 04:01:22;;;;;;;0.80;0.80;;;;;;;-0.11;82.74;96761.47;299395;208;63009;-56
2021/03/19 04:06:22;;;;;;;0.80;0.80;;;;;;;-0.12;82.76;96764.38;299395;202;63011;-56
2021/03/19 04:11:23;;;;;;;0.80;0.80;;;;;;;-0.14;81.90;96771.78;299395;224;63008;-56
2021/03/19 04:16:26;;;;;;;0.80;0.80;;;;;;;-0.18;82.44;96762.59;299395;269;63004;-57
2021/03/19 04:21:27;;;;;;;0.80;0.80;;;;;;;-0.13;82.10;96766.22;299395;197;63009;-57
2021/03/19 04:26:32;;;;;;;0.80;0.80;;;;;;;-0.11;82.54;96772.13;299395;240;63004;-57
2021/03/19 04:31:34;;;;;;;0.80;0.80;;;;;;;-0.07;82.37;96757.31;299395;222;63009;-57
2021/03/19 04:36:44;;;;;;;0.80;0.80;;;;;;;-0.09;82.40;96763.91;299395;216;63005;-57
2021/03/19 04:41:50;;;;;;;0.80;0.80;;;;;;;-0.07;82.57;96765.31;299395;198;63009;-57
2021/03/19 04:46:51;;;;;;;0.80;0.80;;;;;;;-0.04;81.91;96764.84;299395;199;63004;-56
2021/03/19 04:51:52;;;;;;;0.80;0.80;;;;;;;-0.06;81.96;96766.94;299395;246;63009;-56
2021/03/19 04:56:53;;;;;;;0.80;0.80;;;;;;;-0.04;81.97;96769.37;299395;220;63010;-56
2021/03/19 05:02:00;;;;;;;0.80;0.80;;;;;;;0.04;81.57;96765.53;299395;208;63009;-56
2021/03/19 05:07:07;;;;;;;0.80;0.80;;;;;;;0.05;81.43;96769.84;299395;216;63005;-57
2021/03/19 05:12:08;;;;;;;0.80;0.80;;;;;;;0.05;80.61;96767.16;299395;197;63009;-56
2021/03/19 05:17:09;;;;;;;0.80;0.80;;;;;;;0.02;80.99;96778.28;299395;227;63004;-57
2021/03/19 05:22:10;;;;;;;0.80;0.80;;;;;;;0.02;81.08;96778.28;299395;275;63009;-56
2021/03/19 05:27:11;;;;;;;0.80;0.80;;;;;;;0.02;81.20;96776.44;299395;215;63005;-56
2021/03/19 05:32:13;;;;;;;0.80;0.80;;;;;;;0.04;81.02;96776.22;299395;222;63009;-56
2021/03/19 05:37:14;;;;;;;0.80;0.80;;;;;;;0.03;81.27;96775.41;299395;237;63005;-57
2021/03/19 05:42:25;;;;;;;0.80;0.80;;;;;;;0.06;81.31;96774.94;299395;251;63009;-57
2021/03/19 05:47:26;;;;;;;0.80;0.80;;;;;;;0.03;81.26;96782.59;299395;209;63004;-56
2021/03/19 05:52:33;;;;;;;0.80;0.80;;;;;;;0.03;81.47;96787.91;299395;264;63009;-56
2021/03/19 05:57:34;;;;;;;0.80;0.80;;;;;;;0.01;81.35;96793.47;299395;222;63005;-56
2021/03/19 06:02:38;;;;;;;0.80;0.80;;;;;;;0.18;81.26;96813.13;299395;227;63020;-56
2021/03/19 06:07:41;;;;;;;;;;;;;;;0.24;81.59;96814.09;299996;982;6000;-57
2021/03/19 06:12:44;;;;;;;0.80;0.80;;;;;;;0.19;81.79;96816.63;299400;205;63005;-57
2021/03/19 06:17:46;;;;;;;0.80;0.80;;;;;;;0.19;81.79;96821.97;299395;233;63008;-56
2021/03/19 06:22:57;;;;;;;0.80;0.80;;;;;;;0.23;81.92;96831.13;299395;228;63004;-56
2021/03/19 06:28:02;;;;;;;0.80;0.80;;;;;;;0.33;81.65;96836.75;299395;248;63009;-55
2021/03/19 06:33:26;;;;;;;0.70;0.70;;;;;;;0.58;80.49;96837.34;299395;207;63004;-56
2021/03/19 06:38:50;;;;;;;1.20;1.20;;;;;;;0.46;81.08;96839.19;299394;264;64013;-57
2021/03/19 06:43:53;;;;;;;0.80;0.80;;;;;;;0.15;82.47;96834.94;299395;207;63005;-56
2021/03/19 06:49:06;;;;;;;0.80;0.80;;;;;;;-0.05;84.06;96839.75;299395;223;63009;-52
2021/03/19 06:54:47;;;;;;;0.80;0.80;;;;;;;-0.06;84.54;96830.94;299395;284;63010;-58
2021/03/19 06:59:54;;;;;;;0.80;0.80;;;;;;;0.02;84.37;96834.31;299395;245;63009;-58
2021/03/19 07:05:33;;;;;;;0.80;0.80;;;;;;;0.43;82.44;96838.81;299395;197;63009;-58
2021/03/19 07:11:02;;;;;;;0.80;0.80;;;;;;;0.23;83.26;96839.97;299395;212;63009;-58
2021/03/19 07:16:18;;;;;;;0.80;0.80;;;;;;;0.14;84.02;96841.31;299395;210;63009;-57
2021/03/19 07:21:50;;;;;;;;;;;;;;;0.16;83.99;96835.75;299996;982;6000;-58
2021/03/19 07:27:00;;;;;;;0.80;0.80;;;;;;;0.17;83.82;96840.88;299400;206;63005;-58
2021/03/19 07:32:25;;;;;;;0.80;0.80;;;;;;;0.21;84.53;96854.56;299395;205;63008;-59
2021/03/19 07:37:54;;;;;;;0.80;0.80;;;;;;;0.46;83.68;96865.88;299417;251;63004;-53
2021/03/19 07:43:18;;;;;;;0.80;0.80;;;;;;;0.46;83.37;96865.88;299395;235;63009;-58
2021/03/19 07:48:29;;;;;;;0.80;0.80;;;;;;;0.62;82.83;96865.22;299395;257;63005;-58
2021/03/19 07:54:00;;;;;;;0.80;0.80;;;;;;;0.46;83.10;96865.06;299395;275;63009;-57
2021/03/19 07:59:34;;;;;;;0.80;0.80;;;;;;;0.44;84.18;96867.97;299395;219;63009;-57
2021/03/19 08:04:50;;;;;;;0.77;0.77;;;;;;;0.71;82.76;96872.88;299395;235;63005;-58
2021/03/19 08:10:29;;;;;;;0.80;0.80;;;;;;;0.89;82.63;96880.78;299395;301;63004;-58
2021/03/19 08:15:40;;;;;;;0.93;0.93;;;;;;;0.91;82.27;96884.03;299395;239;63004;-58
2021/03/19 08:21:12;;;;;;;0.80;0.80;;;;;;;0.99;82.04;96875.69;299395;285;63009;-57
2021/03/19 08:26:30;;;;;;;0.80;0.80;;;;;;;1.15;80.86;96876.84;299395;214;63005;-58
2021/03/19 08:31:47;;;;;;;0.80;0.80;;;;;;;1.02;81.12;96885.91;299395;263;63008;-58
2021/03/19 08:36:53;;;;;;;1.00;1.00;;;;;;;1.02;81.37;96891.25;299395;223;63004;-59
2021/03/19 08:42:01;;;;;;;0.80;0.80;;;;;;;0.89;82.24;96899.50;299395;211;63009;-59
2021/03/19 08:47:25;;;;;;;0.95;0.95;;;;;;;0.63;83.60;96896.22;299395;218;63004;-64
2021/03/19 08:52:36;;;;;;;0.80;0.80;;;;;;;0.62;83.75;96897.25;299395;231;63009;-55
2021/03/19 08:57:38;;;;;;;0.80;0.80;;;;;;;0.57;84.72;96905.13;299395;254;63005;-59
2021/03/19 09:02:52;;;;;;;1.42;1.42;;;;;;;0.94;83.29;96910.31;299395;222;63009;-55
2021/03/19 09:08:23;;;;;;;0.80;0.80;;;;;;;0.84;83.40;96916.22;299395;221;63004;-58
2021/03/19 09:13:24;;;;;;;1.33;1.33;;;;;;;0.66;84.61;96909.09;299395;212;63009;-64
2021/03/19 09:18:48;;;;;;;0.80;0.80;;;;;;;0.47;85.72;96920.06;299394;215;64005;-59
2021/03/19 09:24:25;;;;;;;0.80;0.80;;;;;;;0.91;82.85;96916.09;299395;202;63017;-61
2021/03/19 09:29:31;;;;;;;0.77;0.77;;;;;;;0.55;85.00;96927.75;299395;218;63004;-57
2021/03/19 09:35:08;;;;;;;0.80;0.80;;;;;;;0.81;84.67;96932.69;299395;210;63009;-58
2021/03/19 09:40:37;;;;;;;0.80;0.80;;;;;;;1.11;83.40;96937.94;299395;225;63009;-59
2021/03/19 09:45:41;;;;;;;0.70;0.70;;;;;;;1.21;81.31;96937.37;299395;214;63009;-57
2021/03/19 09:50:55;;;;;;;0.80;0.80;;;;;;;1.03;82.09;96940.16;299395;199;63005;-56
2021/03/19 09:55:59;;;;;;;0.80;0.80;;;;;;;1.31;80.28;96949.12;299395;284;63009;-59
2021/03/19 10:01:10;;;;;;;0.80;0.80;;;;;;;1.62;78.97;96949.78;299417;223;63004;-57
2021/03/19 10:06:25;;;;;;;0.80;0.80;;;;;;;1.89;77.47;96948.22;299395;218;63009;-58
2021/03/19 10:11:26;;;;;;;0.80;0.80;;;;;;;1.79;78.22;96961.38;299417;206;63005;-57
2021/03/19 10:16:27;;;;;;;0.80;0.80;;;;;;;2.14;77.23;96960.50;299395;203;63009;-58
2021/03/19 10:21:40;;;;;;;0.80;0.80;;;;;;;2.64;74.66;96953.44;299395;220;63004;-58
2021/03/19 10:26:55;;;;;;;0.70;0.70;;;;;;;2.22;75.03;96955.56;299395;196;63009;-53
2021/03/19 10:32:01;;;;;;;0.80;0.80;;;;;;;2.14;74.07;96960.50;299417;205;63005;-53
2021/03/19 10:37:26;;;;;;;0.80;0.80;;;;;;;1.93;73.62;96962.78;299395;219;63009;-53
2021/03/19 10:43:01;;;;;;;0.80;0.80;;;;;;;1.87;76.02;96969.06;299395;231;63005;-58
2021/03/19 10:48:27;;;;;;;0.90;0.90;;;;;;;1.78;78.55;96978.47;299395;197;63009;-58
2021/03/19 10:53:41;;;;;;;0.80;0.80;;;;;;;1.56;79.53;96978.28;299417;196;63004;-58
2021/03/19 10:58:53;;;;;;;0.80;0.80;;;;;;;1.87;79.62;96969.06;299395;245;63026;-57
2021/03/19 11:03:55;;;;;;;0.80;0.80;;;;;;;2.16;78.28;96966.41;299395;199;63005;-59
2021/03/19 11:09:20;;;;;;;0.80;0.80;;;;;;;2.09;78.64;96963.06;299395;263;63008;-59
2021/03/19 11:14:27;;;;;;;0.80;0.80;;;;;;;2.16;77.32;96969.09;299395;233;63009;-58
2021/03/19 11:19:29;;;;;;;1.05;1.05;;;;;;;2.11;74.82;96969.00;299395;219;63009;-62
2021/03/19 11:24:34;;;;;;;0.80;0.80;;;;;;;1.64;76.12;96985.16;299395;202;63005;-59
2021/03/19 11:29:37;;;;;;;0.80;0.80;;;;;;;1.80;76.93;96984.41;299395;232;63009;-61
2021/03/19 11:34:49;;;;;;;0.80;0.80;;;;;;;1.97;75.75;96997.91;299395;202;63005;-59
2021/03/19 11:40:16;;;;;;;0.80;0.80;;;;;;;1.64;77.24;97001.19;299395;223;63009;-58
2021/03/19 11:45:21;;;;;;;0.80;0.80;;;;;;;1.67;78.34;97000.72;299395;215;63012;-57
2021/03/19 11:50:43;;;;;;;0.80;0.80;;;;;;;1.95;77.23;97003.50;299395;226;63009;-57
2021/03/19 11:55:48;;;;;;;0.80;0.80;;;;;;;2.03;74.72;97014.88;299395;245;63005;-57
2021/03/19 12:00:50;;;;;;;0.80;0.80;;;;;;;2.07;74.32;97016.84;299395;206;63008;-58
2021/03/19 12:05:53;;;;;;;0.70;0.70;;;;;;;2.06;73.79;97012.56;299395;199;63004;-55
2021/03/19 12:10:54;;;;;;;0.80;0.80;;;;;;;2.07;73.99;97018.72;299395;215;63009;-57
2021/03/19 12:15:55;;;;;;;0.80;0.80;;;;;;;2.07;73.11;97018.72;299395;218;63004;-57
2021/03/19 12:20:58;;;;;;;0.70;0.70;;;;;;;1.64;73.33;97033.28;299395;221;63009;-52
2021/03/19 12:26:00;;;;;;;0.70;0.70;;;;;;;1.60;74.18;97034.81;299395;207;63005;-57
2021/03/19 12:31:02;;;;;;;0.80;0.80;;;;;;;1.70;73.81;97037.72;299395;271;63020;-58
2021/03/19 12:36:06;;;;;;;0.80;0.80;;;;;;;1.80;72.28;97032.56;299395;230;63004;-58
2021/03/19 12:41:07;;;;;;;0.80;0.80;;;;;;;1.62;74.16;97051.44;299438;203;64013;-54
2021/03/19 12:46:08;;;;;;;0.80;0.80;;;;;;;1.27;74.70;97049.53;299395;219;63005;-58
2021/03/19 12:51:09;;;;;;;0.70;0.70;;;;;;;1.43;75.60;97047.22;299395;228;63009;-58
2021/03/19 12:56:10;;;;;;;0.70;0.70;;;;;;;1.26;76.26;97053.25;299396;216;63005;-61
2021/03/19 13:01:12;;;;;;;0.70;0.70;;;;;;;1.25;76.92;97050.81;299396;211;63009;-58
2021/03/19 13:06:13;;;;;;;0.80;0.80;;;;;;;1.21;77.44;97050.44;299396;222;63004;-57
2021/03/19 13:11:15;;;;;;;0.70;0.70;;;;;;;1.15;78.27;97056.72;299396;236;63009;-56
2021/03/19 13:16:17;;;;;;;0.70;0.70;;;;;;;1.03;79.24;97058.56;299396;214;63005;-62
2021/03/19 13:21:18;;;;;;;0.70;0.70;;;;;;;1.12;79.09;97059.84;299396;206;63009;-56
2021/03/19 13:26:22;;;;;;;0.80;0.80;;;;;;;1.05;79.22;97067.13;299396;216;63005;-58
2021/03/19 13:31:23;;;;;;;0.75;0.75;;;;;;;0.79;78.95;97068.31;299423;219;63009;-56
2021/03/19 13:36:24;;;;;;;0.77;0.77;;;;;;;0.90;78.63;97078.25;299397;243;63004;-58
2021/03/19 13:41:25;;;;;;;0.80;0.80;;;;;;;0.91;77.59;97079.06;299397;238;63009;-53
2021/03/19 13:46:28;;;;;;;0.70;0.70;;;;;;;1.20;77.49;97069.38;299396;251;63005;-57
2021/03/19 13:51:29;;;;;;;0.70;0.70;;;;;;;1.15;76.03;97083.44;299396;292;63009;-57
2021/03/19 13:56:30;;;;;;;0.80;0.80;;;;;;;1.44;75.42;97070.22;299396;229;63005;-56
2021/03/19 14:01:31;;;;;;;0.70;0.70;;;;;;;1.64;73.36;97076.09;299396;197;63020;-53
2021/03/19 14:06:32;;;;;;;0.70;0.70;;;;;;;1.74;73.70;97076.31;299396;252;63004;-57
2021/03/19 14:11:33;;;;;;;0.80;0.80;;;;;;;2.12;72.35;97083.84;299396;216;63009;-59
2021/03/19 14:16:34;;;;;;;0.70;0.70;;;;;;;2.36;70.51;97073.94;299396;227;63005;-58
2021/03/19 14:21:35;;;;;;;0.80;0.80;;;;;;;2.39;70.52;97081.50;299396;196;63008;-59
2021/03/19 14:26:37;;;;;;;0.80;0.80;;;;;;;2.58;69.73;97076.78;299396;222;63004;-57
2021/03/19 14:31:38;;;;;;;0.80;0.80;;;;;;;2.58;69.29;97072.25;299397;282;63009;-54
2021/03/19 14:36:40;;;;;;;0.70;0.70;;;;;;;2.46;68.98;97084.84;299397;277;63004;-59
2021/03/19 14:41:41;;;;;;;0.80;0.80;;;;;;;2.39;70.55;97094.91;299395;298;63009;-60
2021/03/19 14:46:42;;;;;;;0.80;0.80;;;;;;;2.19;71.45;97110.50;299395;204;63005;-57
2021/03/19 14:51:44;;;;;;;0.70;0.70;;;;;;;1.99;72.63;97117.03;299395;229;63008;-58
2021/03/19 14:56:48;;;;;;;0.80;0.80;;;;;;;2.09;72.61;97121.78;299394;222;63004;-59
2021/03/19 15:01:49;;;;;;;0.70;0.70;;;;;;;1.78;74.98;97125.63;299395;216;63009;-58
2021/03/19 15:06:50;;;;;;;0.80;0.80;;;;;;;1.63;76.35;97133.31;299395;220;63004;-59
2021/03/19 15:11:52;;;;;;;0.75;0.75;;;;;;;1.18;77.81;97146.31;299395;278;63009;-59
2021/03/19 15:16:53;;;;;;;0.80;0.80;;;;;;;1.08;78.01;97154.84;299395;290;63005;-58
2021/03/19 15:21:56;;;;;;;0.80;0.80;;;;;;;1.20;77.06;97161.06;299395;204;63008;-57
2021/03/19 15:26:58;;;;;;;0.75;0.75;;;;;;;0.98;76.11;97159.94;299395;197;63004;-57
2021/03/19 15:32:01;;;;;;;0.80;0.80;;;;;;;1.19;77.06;97148.75;299395;283;63009;-58
2021/03/19 15:37:05;;;;;;;0.80;0.80;;;;;;;1.29;77.44;97162.41;299439;213;63004;-58
2021/03/19 15:42:08;;;;;;;0.88;0.88;;;;;;;1.48;76.83;97157.78;299395;236;63009;-58
2021/03/19 15:47:09;;;;;;;0.80;0.80;;;;;;;1.40;78.06;97162.62;299395;196;63005;-57
2021/03/19 15:52:11;;;;;;;0.80;0.80;;;;;;;1.70;76.54;97171.47;299395;269;63005;-59
2021/03/19 15:57:12;;;;;;;0.80;0.80;;;;;;;1.72;75.04;97163.22;299395;216;63004;-57
2021/03/19 16:02:13;;;;;;;0.80;0.80;;;;;;;1.71;75.30;97166.94;299395;247;63009;-57
2021/03/19 16:07:14;;;;;;;0.80;0.80;;;;;;;1.92;73.75;97177.06;299395;269;63005;-56
2021/03/19 16:12:15;;;;;;;0.70;0.70;;;;;;;2.05;72.54;97174.19;299395;260;63009;-56
2021/03/19 16:17:18;;;;;;;0.80;0.80;;;;;;;2.03;73.98;97172.78;299395;202;63005;-55
2021/03/19 16:22:19;;;;;;;0.80;0.80;;;;;;;1.92;74.53;97180.56;299395;226;63009;-58
2021/03/19 16:27:20;;;;;;;0.80;0.80;;;;;;;1.95;74.79;97185.47;299395;225;63004;-57
2021/03/19 16:32:21;;;;;;;0.80;0.80;;;;;;;2.38;72.73;97189.69;299395;219;63009;-59
2021/03/19 16:37:26;;;;;;;0.80;0.80;;;;;;;2.33;71.53;97192.22;299395;206;63005;-58
2021/03/19 16:42:26;;;;;;;;;;;;;;;2.04;73.12;97198.50;299996;982;6004;-57
2021/03/19 16:47:28;;;;;;;0.80;0.80;;;;;;;1.85;72.32;97205.78;299400;213;63009;-57
2021/03/19 16:52:29;;;;;;;0.80;0.80;;;;;;;1.67;74.01;97214.72;299395;234;63005;-57
2021/03/19 16:57:30;;;;;;;0.80;0.80;;;;;;;1.58;74.06;97221.44;299395;213;63009;-53
2021/03/19 17:02:33;;;;;;;0.80;0.80;;;;;;;1.63;72.60;97219.72;299395;199;63004;-57
2021/03/19 17:07:35;;;;;;;0.80;0.80;;;;;;;1.58;72.71;97232.13;299395;222;63009;-58
2021/03/19 17:12:36;;;;;;;0.80;0.80;;;;;;;1.43;73.06;97266.47;299395;216;63004;-58
2021/03/19 17:17:37;;;;;;;0.80;0.80;;;;;;;1.21;76.18;97284.84;299395;203;63009;-58
2021/03/19 17:22:38;;;;;;;0.80;0.80;;;;;;;0.77;78.44;97277.94;299395;203;63005;-57
2021/03/19 17:27:39;;;;;;;0.70;0.70;;;;;;;0.69;76.26;97280.91;299395;208;63008;-57
2021/03/19 17:32:40;;;;;;;0.80;0.80;;;;;;;0.60;78.01;97278.53;299395;202;63004;-57
2021/03/19 17:37:42;;;;;;;0.80;0.80;;;;;;;0.57;78.35;97289.63;299395;207;63009;-57
2021/03/19 17:42:43;;;;;;;0.90;0.90;;;;;;;0.48;78.07;97287.47;299395;224;63004;-58
2021/03/19 17:47:47;;;;;;;0.95;0.95;;;;;;;0.64;73.08;97295.75;299395;202;63009;-57
2021/03/19 17:52:49;;;;;;;0.80;0.80;;;;;;;0.73;74.26;97304.25;299417;257;63005;-57
2021/03/19 17:57:51;;;;;;;0.80;0.80;;;;;;;0.87;72.68;97302.28;299395;205;63008;-58
2021/03/19 18:02:53;;;;;;;0.77;0.77;;;;;;;0.71;74.02;97306.34;299395;253;63004;-58
2021/03/19 18:07:55;;;;;;;0.80;0.80;;;;;;;0.64;72.54;97309.09;299395;206;63009;-52
2021/03/19 18:12:56;;;;;;;0.80;0.80;;;;;;;0.42;74.66;97312.34;299395;241;63004;-57
2021/03/19 18:17:58;;;;;;;0.80;0.80;;;;;;;0.38;73.89;97321.81;299395;218;63009;-59
2021/03/19 18:23:17;;;;;;;0.80;0.80;;;;;;;0.28;74.28;97333.00;299395;222;63005;-53
2021/03/19 18:28:21;;;;;;;0.80;0.80;;;;;;;0.23;74.99;97333.66;299395;212;63009;-52
2021/03/19 18:33:22;;;;;;;;;;;;;;;0.23;74.46;97331.00;299996;983;6000;-58
2021/03/19 18:38:23;;;;;;;0.73;0.73;;;;;;;0.41;71.45;97332.06;299400;273;63005;-57
2021/03/19 18:43:25;;;;;;;0.80;0.80;;;;;;;0.18;69.08;97335.34;299395;221;63009;-53
2021/03/19 18:48:26;;;;;;;0.80;0.80;;;;;;;0.20;71.89;97343.94;299395;223;63004;-57
2021/03/19 18:53:30;;;;;;;0.80;0.80;;;;;;;0.04;73.48;97357.78;299395;250;63009;-58
2021/03/19 18:58:31;;;;;;;0.80;0.80;;;;;;;-0.04;71.68;97362.38;299417;228;63005;-59
2021/03/19 19:03:32;;;;;;;1.12;1.12;;;;;;;-0.05;72.29;97370.59;299395;198;63009;-57
2021/03/19 19:08:34;;;;;;;0.80;0.80;;;;;;;-0.13;72.90;97373.50;299395;227;63005;-58
2021/03/19 19:13:39;;;;;;;0.80;0.80;;;;;;;-0.30;73.81;97378.50;299395;197;63009;-53
2021/03/19 19:18:43;;;;;;;0.80;0.80;;;;;;;-0.37;75.09;97385.72;299395;232;63004;-54
2021/03/19 19:23:45;;;;;;;0.90;0.90;;;;;;;-0.46;75.19;97393.13;299417;290;63009;-58
2021/03/19 19:28:46;;;;;;;0.80;0.80;;;;;;;-0.59;75.92;97387.00;299395;256;63005;-59
2021/03/19 19:33:47;;;;;;;0.80;0.80;;;;;;;-0.70;76.90;97378.66;299395;255;63009;-58
2021/03/19 19:38:49;;;;;;;0.80;0.80;;;;;;;-0.81;77.35;97381.97;299395;226;63005;-58
2021/03/19 19:43:50;;;;;;;0.80;0.80;;;;;;;-0.85;78.38;97388.72;299395;224;63009;-54
2021/03/19 19:48:56;;;;;;;4.22;1.77;;;;;;;-0.81;76.72;97391.81;299395;231;63004;-58
2021/03/19 19:53:58;;;;;;;0.80;0.80;;;;;;;-0.89;78.10;97390.16;299395;211;63009;-53
2021/03/19 19:59:01;;;;;;;0.90;0.90;;;;;;;-0.90;78.39;97404.50;299395;242;63005;-58
2021/03/19 20:04:03;;;;;;;0.80;0.80;;;;;;;-0.88;78.66;97402.47;299395;305;63009;-58
2021/03/19 20:09:06;;;;;;;0.80;0.80;;;;;;;-0.88;79.41;97407.78;299395;218;63005;-58
2021/03/19 20:14:08;;;;;;;0.80;0.80;;;;;;;-0.88;79.48;97413.12;299395;213;63009;-58
2021/03/19 20:19:13;;;;;;;0.80;0.80;;;;;;;-0.92;79.36;97411.91;299395;328;63004;-58
2021/03/19 20:24:16;;;;;;;0.80;0.80;;;;;;;-0.92;78.95;97430.53;299395;220;63009;-58
2021/03/19 20:29:19;;;;;;;0.80;0.80;;;;;;;-0.95;78.74;97432.78;299395;219;63005;-59
2021/03/19 20:34:21;;;;;;;0.80;0.80;;;;;;;-0.89;78.45;97438.13;299395;297;63008;-58
2021/03/19 20:39:32;;;;;;;0.80;0.80;;;;;;;-0.87;78.26;97438.72;299395;241;63004;-59
2021/03/19 20:44:34;;;;;;;0.80;0.80;;;;;;;-0.79;76.35;97441.19;299395;286;63009;-58
2021/03/19 20:49:39;;;;;;;0.80;0.80;;;;;;;-0.87;75.84;97457.38;299395;256;63004;-58
2021/03/19 20:54:42;;;;;;;0.80;0.80;;;;;;;-0.87;77.25;97468.03;299395;271;63009;-57
2021/03/19 20:59:53;;;;;;;0.80;0.80;;;;;;;-0.85;76.37;97470.50;299377;230;125005;-57
2021/03/19 21:04:55;;;;;;;0.80;0.80;;;;;;;-0.85;75.58;97468.66;299395;276;63009;-57
2021/03/19 21:09:58;;;;;;;0.80;0.80;;;;;;;-0.88;76.18;97481.56;299395;343;63004;-58
2021/03/19 21:14:59;;;;;;;0.80;0.80;;;;;;;-0.86;75.82;97485.66;299395;225;63009;-58
2021/03/19 21:20:00;;;;;;;0.80;0.80;;;;;;;-0.76;75.48;97494.06;299395;350;63005;-58
2021/03/19 21:25:02;;;;;;;0.80;0.80;;;;;;;-0.81;74.57;97496.53;299395;301;63019;-57
2021/03/19 21:30:08;;;;;;;0.88;0.88;;;;;;;-0.78;74.95;97497.97;299395;353;63005;-57
2021/03/19 21:35:10;;;;;;;0.80;0.80;;;;;;;-0.80;73.45;97498.16;299395;333;63009;-58
2021/03/19 21:40:13;;;;;;;0.80;0.80;;;;;;;-0.94;74.63;97493.84;299395;234;63004;-58
2021/03/19 21:45:15;;;;;;;0.80;0.80;;;;;;;-0.95;75.46;97505.53;299395;268;63009;-57
2021/03/19 21:50:21;;;;;;;0.80;0.80;;;;;;;-1.04;75.30;97498.81;299395;259;63005;-57
2021/03/19 21:55:23;;;;;;;0.80;0.80;;;;;;;-1.00;74.64;97500.00;299395;327;63009;-57
2021/03/19 22:00:26;;;;;;;0.80;0.80;;;;;;;-0.94;75.13;97509.84;299395;232;63005;-57
2021/03/19 22:05:28;;;;;;;0.80;0.80;;;;;;;-1.02;74.41;97512.69;299395;301;63009;-58
2021/03/19 22:10:32;;;;;;;0.80;0.80;;;;;;;-1.06;75.60;97522.16;299395;206;63004;-57
2021/03/19 22:15:33;;;;;;;0.90;0.90;;;;;;;-1.07;75.03;97525.84;299417;218;63009;-57
2021/03/19 22:20:36;;;;;;;0.80;0.80;;;;;;;-1.16;75.62;97537.69;299395;320;63010;-57
2021/03/19 22:25:37;;;;;;;0.80;0.80;;;;;;;-1.15;74.61;97539.34;299395;238;63008;-58
2021/03/19 22:30:39;;;;;;;0.90;0.90;;;;;;;-1.14;75.74;97535.66;299395;289;63004;-58
2021/03/19 22:35:42;;;;;;;0.90;0.90;;;;;;;-1.14;76.27;97536.47;299395;252;63009;-57
2021/03/19 22:40:46;;;;;;;0.90;0.90;;;;;;;-1.28;75.92;97540.13;299395;259;63004;-57
2021/03/19 22:45:47;;;;;;;0.80;0.80;;;;;;;-1.39;76.18;97538.87;299417;230;63009;-58
2021/03/19 22:50:49;;;;;;;0.80;0.80;;;;;;;-1.54;77.12;97540.91;299395;380;63005;-58
2021/03/19 22:55:51;;;;;;;0.80;0.80;;;;;;;-1.60;76.85;97544.34;299394;306;64013;-58
2021/03/19 23:00:55;;;;;;;0.80;0.80;;;;;;;-1.64;76.80;97548.44;299395;211;63004;-58
2021/03/19 23:05:59;;;;;;;;;;;;;;;-1.59;76.95;97543.34;299996;983;6005;-59
2021/03/19 23:11:08;;;;;;;0.80;0.80;;;;;;;-1.53;76.75;97544.38;299400;383;63008;-58
2021/03/19 23:16:12;;;;;;;0.80;0.80;;;;;;;-1.55;76.60;97539.25;299395;306;63004;-58
2021/03/19 23:21:20;;;;;;;0.80;0.80;;;;;;;-1.60;76.82;97547.00;299417;207;63009;-58
2021/03/19 23:26:32;;;;;;;0.90;0.90;;;;;;;-1.63;76.59;97544.75;299395;224;63004;-57
2021/03/19 23:31:33;;;;;;;0.90;0.90;;;;;;;-1.61;76.63;97544.56;299394;281;64009;-58
2021/03/19 23:36:35;;;;;;;0.90;0.90;;;;;;;-1.69;76.30;97548.19;299395;259;63005;-58
2021/03/19 23:41:42;;;;;;;0.90;0.90;;;;;;;-1.75;77.04;97549.84;299395;205;63009;-58
2021/03/19 23:46:45;;;;;;;0.80;0.80;;;;;;;-1.79;77.03;97555.75;299395;196;63004;-57
2021/03/19 23:51:47;;;;;;;0.80;0.80;;;;;;;-1.99;77.30;97557.50;299395;288;63009;-58
2021/03/19 23:56:48;;;;;;;0.90;0.90;;;;;;;-1.85;77.07;97562.69;299395;224;63005;-58
